Time;durP1;ratioP1;P1;durP2;ratioP2;P2;SDS_P1;SDS_P2;PMS_P1;PMS_P2;Temp;Humidity;BMP_temperature;BMP_pressure;BME280_temperature;BME280_humidity;BME280_pressure;Samples;Min_cycle;Max_cycle;Signal;HPM_P1;HPM_P2
2022/10/28 00:02:20;;;;;;;6.87;5.30;;;;;;;9.28;100.00;97284.84;5071527;27;101948;-63
2022/10/28 00:04:48;;;;;;;6.73;4.90;;;;;;;9.25;100.00;97282.63;5071573;27;103651;-63
2022/10/28 00:07:17;;;;;;;7.27;5.10;;;;;;;9.09;100.00;97285.84;5070695;27;104141;-63
2022/10/28 00:09:44;;;;;;;6.77;5.00;;;;;;;9.10;100.00;97287.50;5072743;27;102005;-63
2022/10/28 00:12:11;;;;;;;8.03;5.60;;;;;;;9.00;100.00;97282.66;5074296;27;105745;-63
2022/10/28 00:14:38;;;;;;;9.40;5.90;;;;;;;8.96;100.00;97288.63;5071464;27;102073;-63
2022/10/28 00:17:05;;;;;;;7.40;5.70;;;;;;;9.01;100.00;97289.63;5071292;27;103609;-63
2022/10/28 00:19:32;;;;;;;9.37;6.00;;;;;;;8.94;100.00;97288.06;5070481;27;104354;-63
2022/10/28 00:22:00;;;;;;;7.07;5.73;;;;;;;8.93;100.00;97291.69;5071334;27;101869;-63
2022/10/28 00:24:28;;;;;;;7.20;5.70;;;;;;;8.85;100.00;97284.84;5070863;27;106558;-63
2022/10/28 00:26:55;;;;;;;8.57;6.20;;;;;;;8.79;100.00;97290.22;5070564;27;105339;-63
2022/10/28 00:29:23;;;;;;;7.33;5.77;;;;;;;8.87;100.00;97287.28;5071071;27;101920;-63
2022/10/28 00:31:51;;;;;;;8.37;6.03;;;;;;;8.92;100.00;97282.94;5071058;27;105023;-63
2022/10/28 00:34:21;;;;;;;8.47;6.67;;;;;;;8.92;100.00;97279.47;5073751;27;103826;-63
2022/10/28 00:36:48;;;;;;;10.67;6.40;;;;;;;8.85;100.00;97284.84;5070826;27;104047;-63
2022/10/28 00:39:17;;;;;;;9.37;6.07;;;;;;;8.90;100.00;97278.91;5070246;27;105178;-63
2022/10/28 00:41:48;;;;;;;6.87;4.90;;;;;;;8.84;100.00;97279.78;5070590;27;101909;-63
2022/10/28 00:44:50;;;;;;;4.70;4.13;;;;;;;8.82;100.00;97287.94;5070730;27;103851;-63
2022/10/28 00:47:27;;;;;;;5.50;4.70;;;;;;;8.84;100.00;97293.03;5070360;27;104110;-63
2022/10/28 00:49:57;;;;;;;7.33;5.50;;;;;;;8.78;100.00;97280.63;5070316;27;101900;-63
2022/10/28 00:52:29;;;;;;;5.67;4.47;;;;;;;8.78;100.00;97280.63;5070757;27;104189;-63
2022/10/28 00:55:00;;;;;;;7.53;4.37;;;;;;;8.85;100.00;97282.22;5073575;27;105462;-63
2022/10/28 00:57:34;;;;;;;6.53;4.50;;;;;;;8.85;100.00;97284.03;5071478;27;102591;-63
2022/10/28 01:00:02;;;;;;;5.17;3.97;;;;;;;8.78;100.00;97285.94;5069786;27;105991;-63
2022/10/28 01:02:29;;;;;;;5.50;4.30;;;;;;;8.80;100.00;97284.69;5070616;27;101885;-63
2022/10/28 01:04:57;;;;;;;5.20;4.30;;;;;;;8.89;100.00;97280.72;5070320;27;103548;-63
2022/10/28 01:07:25;;;;;;;5.37;4.20;;;;;;;8.82;100.00;97279.97;5069966;27;104135;-63
2022/10/28 01:09:52;;;;;;;6.17;4.13;;;;;;;8.71;100.00;97271.91;5071866;27;101784;-63
2022/10/28 01:12:35;;;;;;;5.37;3.87;;;;;;;8.63;100.00;97275.66;5070231;27;105372;-63
2022/10/28 01:15:10;;;;;;;4.40;3.90;;;;;;;8.71;100.00;97272.72;5069769;27;104410;-63
2022/10/28 01:17:52;;;;;;;4.73;4.17;;;;;;;8.79;100.00;97272.44;5073738;27;101970;-63
2022/10/28 01:20:52;;;;;;;5.27;4.03;;;;;;;8.83;100.00;97275.50;5069643;27;103876;-63
2022/10/28 01:23:26;;;;;;;4.60;4.07;;;;;;;8.83;100.00;97264.88;5070328;27;101914;-63
2022/10/28 01:26:21;;;;;;;4.43;3.90;;;;;;;8.80;100.00;97260.00;5071601;27;102378;-63
2022/10/28 01:29:23;;;;;;;5.70;3.90;;;;;;;8.72;100.00;97255.78;5071065;27;102645;-63
2022/10/28 01:31:57;;;;;;;5.57;4.47;;;;;;;8.62;100.00;97262.63;5070190;27;101775;-63
2022/10/28 01:34:30;;;;;;;4.70;4.10;;;;;;;8.68;100.00;97261.75;5070027;27;105278;-63
2022/10/28 01:37:04;;;;;;;4.60;4.13;;;;;;;8.71;100.00;97261.31;5069240;27;105066;-63
2022/10/28 01:39:37;;;;;;;4.80;3.53;;;;;;;8.62;100.00;97259.97;5070069;27;101813;-63
2022/10/28 01:42:14;;;;;;;4.10;3.70;;;;;;;8.44;100.00;97254.59;5072769;27;105787;-63
2022/10/28 01:44:48;;;;;;;6.37;3.97;;;;;;;8.53;100.00;97258.59;5069837;27;101768;-63
2022/10/28 01:47:22;;;;;;;7.87;4.53;;;;;;;8.62;100.00;97258.13;5069886;27;105285;-63
2022/10/28 01:49:54;;;;;;;4.80;4.40;;;;;;;8.67;100.00;97249.53;5069380;27;105137;-63
2022/10/28 01:52:25;;;;;;;6.10;3.87;;;;;;;8.58;100.00;97256.13;5069680;27;101877;-63
2022/10/28 01:54:58;;;;;;;5.57;4.30;;;;;;;8.68;100.00;97253.78;5068637;27;102636;-63
2022/10/28 01:57:28;;;;;;;4.87;3.80;;;;;;;8.54;100.00;97250.44;5068748;27;103726;-63
2022/10/28 01:59:57;;;;;;;7.30;4.97;;;;;;;8.59;100.00;97257.75;5069847;27;101779;-63
2022/10/28 02:02:25;;;;;;;7.17;4.03;;;;;;;8.49;100.00;97254.75;5069543;27;103723;-63
2022/10/28 02:05:02;;;;;;;4.73;3.90;;;;;;;8.44;100.00;97251.94;5072559;27;105597;-63
2022/10/28 02:07:29;;;;;;;5.60;3.90;;;;;;;8.35;100.00;97242.66;5071130;27;102832;-63
2022/10/28 02:10:07;;;;;;;4.37;3.97;;;;;;;8.32;100.00;97246.53;5070429;27;102610;-63
2022/10/28 02:12:37;;;;;;;4.97;4.17;;;;;;;8.42;100.00;97254.84;5069473;27;101781;-63
2022/10/28 02:15:31;;;;;;;5.67;4.30;;;;;;;8.43;100.00;97258.28;5069645;27;104067;-63
2022/10/28 02:18:13;;;;;;;4.20;3.80;;;;;;;8.50;100.00;97259.06;5068666;27;105358;-63
2022/10/28 02:20:49;;;;;;;4.87;3.80;;;;;;;8.57;100.00;97259.81;5069431;27;101847;-63
2022/10/28 02:23:27;;;;;;;4.20;3.80;;;;;;;8.50;100.00;97253.75;5069448;27;105497;-63
2022/10/28 02:25:59;;;;;;;4.87;4.10;;;;;;;8.34;100.00;97254.28;5068627;27;105291;-63
2022/10/28 02:28:37;;;;;;;6.00;3.87;;;;;;;8.31;100.00;97255.53;5072718;27;101693;-63
2022/10/28 02:31:11;;;;;;;6.50;4.10;;;;;;;8.40;100.00;97250.78;5068479;27;105236;-63
2022/10/28 02:33:41;;;;;;;4.87;4.20;;;;;;;8.37;100.00;97253.84;5069436;27;101932;-63
2022/10/28 02:36:13;;;;;;;4.47;4.07;;;;;;;8.46;100.00;97252.56;5070690;27;102601;-63
2022/10/28 02:38:44;;;;;;;4.30;3.87;;;;;;;8.50;100.00;97254.53;5068593;27;105146;-63
2022/10/28 02:41:16;;;;;;;4.23;3.83;;;;;;;8.45;100.00;97250.94;5069268;27;101685;-63
2022/10/28 02:43:46;;;;;;;3.80;3.50;;;;;;;8.34;100.00;97255.06;5069139;27;105196;-63
2022/10/28 02:46:15;;;;;;;5.20;3.77;;;;;;;8.26;100.00;97254.53;5068435;27;103853;-63
2022/10/28 02:48:47;;;;;;;5.20;4.10;;;;;;;8.31;100.00;97255.53;5068375;27;101811;-63
2022/10/28 02:51:18;;;;;;;4.20;3.80;;;;;;;8.35;100.00;97255.91;5071796;27;104931;-63
2022/10/28 02:53:55;;;;;;;4.03;3.63;;;;;;;8.32;100.00;97256.31;5069018;27;101894;-63
2022/10/28 02:56:23;;;;;;;4.70;3.90;;;;;;;8.22;100.00;97256.81;5068810;27;105562;-63
2022/10/28 02:58:50;;;;;;;3.90;3.50;;;;;;;8.25;100.00;97255.56;5067965;27;103936;-63
2022/10/28 03:01:17;;;;;;;4.20;3.80;;;;;;;8.15;100.00;97257.84;5069014;27;101931;-63
2022/10/28 03:03:46;;;;;;;5.23;3.73;;;;;;;8.05;100.00;97254.84;5068921;27;105406;-63
2022/10/28 03:06:14;;;;;;;4.50;3.53;;;;;;;8.04;100.00;97258.50;5070081;27;105608;-63
2022/10/28 03:08:41;;;;;;;4.23;3.83;;;;;;;8.01;100.00;97253.66;5073418;27;101915;-63
2022/10/28 03:11:08;;;;;;;5.30;3.47;;;;;;;7.99;100.00;97255.69;5075111;27;104130;-63
2022/10/28 03:13:35;;;;;;;6.53;3.80;;;;;;;7.99;100.00;97251.22;5072249;27;101816;-63
2022/10/28 03:16:02;;;;;;;5.77;4.43;;;;;;;8.06;100.00;97249.34;5072342;27;103716;-63
2022/10/28 03:18:29;;;;;;;7.07;4.60;;;;;;;8.13;100.00;97244.00;5071666;27;105237;-63
2022/10/28 03:20:58;;;;;;;6.03;4.80;;;;;;;8.16;100.00;97260.28;5073704;27;101864;-63
2022/10/28 03:23:26;;;;;;;5.53;4.27;;;;;;;8.20;100.00;97255.38;5071980;27;105821;-63
2022/10/28 03:25:53;;;;;;;4.97;4.37;;;;;;;8.25;100.00;97255.56;5071516;27;103805;-63
2022/10/28 03:28:20;;;;;;;5.10;4.30;;;;;;;8.23;100.00;97258.41;5071964;27;102338;-63
2022/10/28 03:30:47;;;;;;;5.73;4.50;;;;;;;8.18;100.00;97260.88;5072219;27;105521;-63
2022/10/28 03:33:14;;;;;;;5.13;4.63;;;;;;;8.19;100.00;97262.47;5074947;27;106068;-63
2022/10/28 03:35:42;;;;;;;4.93;4.20;;;;;;;8.23;100.00;97254.97;5071972;27;105294;-63
2022/10/28 03:38:10;;;;;;;5.40;4.40;;;;;;;8.29;100.00;97262.06;5071291;27;103703;-63
2022/10/28 03:40:37;;;;;;;6.83;4.57;;;;;;;8.26;100.00;97259.81;5071926;27;101889;-63
2022/10/28 03:43:06;;;;;;;6.63;5.40;;;;;;;8.27;100.00;97259.63;5071566;27;105136;-63
2022/10/28 03:45:32;;;;;;;6.77;5.17;;;;;;;8.16;100.00;97262.09;5072817;27;103176;-63
2022/10/28 03:48:00;;;;;;;5.40;4.90;;;;;;;8.23;100.00;97257.63;5071390;27;101944;-63
2022/10/28 03:50:26;;;;;;;5.63;4.90;;;;;;;8.14;100.00;97253.56;5071655;27;105558;-63
2022/10/28 03:52:55;;;;;;;6.70;4.50;;;;;;;8.15;100.00;97255.19;5071233;27;105254;-63
2022/10/28 03:55:24;;;;;;;7.30;4.90;;;;;;;8.10;100.00;97252.38;5075335;27;101923;-63
2022/10/28 03:58:06;;;;;;;5.27;4.60;;;;;;;8.07;100.00;97252.81;5070422;27;103708;-63
2022/10/28 04:00:33;;;;;;;5.13;4.40;;;;;;;8.02;100.00;97248.13;4992823;28;101889;-63
2022/10/28 04:03:01;;;;;;;5.33;4.87;;;;;;;8.05;100.00;97249.53;4992922;28;103647;-63
2022/10/28 04:05:29;;;;;;;5.60;4.93;;;;;;;8.02;100.00;97260.56;4992202;28;105689;-63
2022/10/28 04:07:55;;;;;;;7.30;4.77;;;;;;;7.98;100.00;97264.66;4993063;28;102170;-63
2022/10/28 04:10:24;;;;;;;6.13;5.03;;;;;;;8.02;100.00;97265.88;4992789;28;105301;-63
2022/10/28 04:12:54;;;;;;;4.93;4.40;;;;;;;8.09;100.00;97258.69;5008737;28;104041;-63
2022/10/28 04:15:21;;;;;;;5.07;4.67;;;;;;;8.12;100.00;97258.28;5009607;28;101928;-63
2022/10/28 04:17:49;;;;;;;6.03;4.87;;;;;;;8.08;100.00;97265.81;5011429;28;102656;-63
2022/10/28 04:20:16;;;;;;;7.03;4.90;;;;;;;8.12;100.00;97261.72;4992666;28;101914;-63
2022/10/28 04:22:44;;;;;;;6.20;4.87;;;;;;;8.03;100.00;97263.03;4992594;28;104828;-63
2022/10/28 04:25:11;;;;;;;5.43;4.50;;;;;;;7.97;100.00;97263.06;4992019;28;105263;-63
2022/10/28 04:27:40;;;;;;;4.97;4.27;;;;;;;8.00;100.00;97262.59;4992184;28;101897;-63
2022/10/28 04:30:09;;;;;;;5.03;4.53;;;;;;;8.08;100.00;97260.50;4992652;28;105670;-63
2022/10/28 04:32:36;;;;;;;5.20;4.70;;;;;;;8.01;100.00;97258.97;4991977;28;106220;-63
2022/10/28 04:35:03;;;;;;;5.80;4.50;;;;;;;7.96;100.00;97256.13;5009039;28;102685;-63
2022/10/28 04:37:30;;;;;;;5.67;4.40;;;;;;;8.00;100.00;97259.97;5031778;27;103884;-63
2022/10/28 04:39:58;;;;;;;5.03;4.17;;;;;;;8.02;100.00;97257.94;5073861;27;102809;-63
2022/10/28 04:42:31;;;;;;;4.73;4.33;;;;;;;7.95;100.00;97255.31;5070545;27;105704;-63
2022/10/28 04:44:59;;;;;;;5.87;4.90;;;;;;;8.02;100.00;97257.94;5070619;27;105356;-63
2022/10/28 04:47:26;;;;;;;7.00;4.93;;;;;;;8.06;100.00;97251.97;5070730;27;102209;-63
2022/10/28 04:49:54;;;;;;;6.50;4.47;;;;;;;8.09;100.00;97256.03;5071045;27;103800;-63
2022/10/28 04:52:30;;;;;;;5.53;4.70;;;;;;;8.05;100.00;97257.50;5070243;27;103778;-63
2022/10/28 04:54:56;;;;;;;6.30;4.40;;;;;;;8.02;100.00;97263.22;5071087;27;102242;-63
2022/10/28 04:57:24;;;;;;;4.40;4.00;;;;;;;7.93;100.00;97259.19;5070655;27;104065;-63
2022/10/28 04:59:50;;;;;;;5.57;4.13;;;;;;;7.84;100.00;97263.09;5070188;27;105808;-63
2022/10/28 05:09:30;;;;;;;7.17;4.93;;;;;;;7.79;100.00;97255.00;5070565;27;101892;-63
2022/10/28 05:12:07;;;;;;;8.47;5.10;;;;;;;7.88;100.00;97257.19;5070830;27;105493;-63
2022/10/28 05:14:35;;;;;;;8.77;5.10;;;;;;;7.82;100.00;97254.56;5071573;27;102550;-63
2022/10/28 05:17:02;;;;;;;5.83;4.93;;;;;;;7.92;100.00;97249.63;5070712;27;101886;-63
2022/10/28 05:19:30;;;;;;;6.73;5.03;;;;;;;7.83;100.00;97249.06;5070270;27;104987;-63
2022/10/28 05:29:57;;;;;;;6.30;4.80;;;;;;;7.78;100.00;97245.41;5067951;27;102144;-63
2022/10/28 05:33:15;;;;;;;9.53;4.50;;;;;;;7.72;100.00;97238.31;5070544;27;101924;-63
2022/10/28 05:35:42;;;;;;;6.63;4.53;;;;;;;7.74;100.00;97238.94;5070501;27;105462;-63
2022/10/28 05:38:10;;;;;;;7.53;5.13;;;;;;;7.68;100.00;97243.22;5071036;27;102542;-63
2022/10/28 05:40:37;;;;;;;9.73;5.40;;;;;;;7.71;100.00;97240.19;5070352;27;102193;-63
2022/10/28 05:43:05;;;;;;;9.20;5.13;;;;;;;7.69;100.00;97252.00;5070608;27;102903;-63
2022/10/28 05:45:33;;;;;;;5.93;5.33;;;;;;;7.71;100.00;97249.94;5069345;27;103954;-63
2022/10/28 05:48:00;;;;;;;6.67;5.50;;;;;;;7.82;100.00;97247.44;5069359;27;101936;-63
2022/10/28 05:50:28;;;;;;;6.13;5.50;;;;;;;7.92;100.00;97249.63;5071772;27;105184;-63
2022/10/28 05:52:57;;;;;;;7.60;5.67;;;;;;;7.86;100.00;97245.97;5069625;27;102272;-63
2022/10/28 05:55:27;;;;;;;6.13;5.50;;;;;;;7.97;100.00;97247.16;5069810;27;105387;-63
2022/10/28 05:57:55;;;;;;;7.43;5.80;;;;;;;7.88;100.00;97254.53;5069374;27;105532;-63
2022/10/28 06:00:24;;;;;;;7.43;5.37;;;;;;;7.94;100.00;97250.22;5069618;27;102141;-63
2022/10/28 06:03:02;;;;;;;6.60;5.83;;;;;;;8.04;100.00;97255.88;5069284;27;106207;-63
2022/10/28 06:05:30;;;;;;;9.70;5.40;;;;;;;8.03;100.00;97257.72;5068781;27;105823;-64
2022/10/28 06:07:56;;;;;;;5.90;5.20;;;;;;;8.08;100.00;97254.41;5068161;27;102431;-66
2022/10/28 06:10:23;;;;;;;6.33;5.73;;;;;;;8.05;100.00;97245.06;5071187;27;102302;-65
2022/10/28 06:12:56;;;;;;;9.07;5.20;;;;;;;8.07;100.00;97252.81;5072644;27;105786;-64
2022/10/28 06:15:23;;;;;;;7.90;6.20;;;;;;;8.06;100.00;97243.22;5069950;27;104887;-65
2022/10/28 06:17:50;;;;;;;8.00;5.67;;;;;;;8.16;100.00;97256.81;5068669;27;105750;-64
2022/10/28 06:20:19;;;;;;;7.13;5.60;;;;;;;8.26;100.00;97250.06;5069468;27;101896;-62
2022/10/28 06:22:59;;;;;;;13.30;6.57;;;;;;;8.35;100.00;97253.25;5067197;27;105708;-65
2022/10/28 06:25:58;;;;;;;8.30;4.93;;;;;;;8.38;100.00;97258.09;5065291;27;105712;-65
2022/10/28 06:28:26;;;;;;;8.53;4.83;;;;;;;8.47;100.00;97262.13;5069037;27;103320;-65
2022/10/28 06:31:02;;;;;;;7.37;5.00;;;;;;;8.62;100.00;97267.94;5070696;27;102917;-65
2022/10/28 06:33:29;;;;;;;10.73;5.50;;;;;;;8.78;100.00;97267.38;5069238;27;104223;-65
2022/10/28 06:36:00;;;;;;;9.87;5.90;;;;;;;8.87;100.00;97261.56;5072960;27;103314;-65
2022/10/28 06:38:27;;;;;;;10.97;5.40;;;;;;;8.89;100.00;97264.00;5068612;27;103826;-65
2022/10/28 06:41:16;;;;;;;9.20;6.10;;;;;;;9.05;100.00;97268.75;5070678;27;103111;-65
2022/10/28 06:43:42;;;;;;;9.27;5.43;;;;;;;9.12;100.00;97269.50;5073314;27;104217;-65
2022/10/28 06:46:10;;;;;;;11.73;5.07;;;;;;;9.25;100.00;97266.69;5072212;27;105038;-65
2022/10/28 06:48:38;;;;;;;9.53;5.60;;;;;;;9.37;100.00;97259.66;5071924;27;102000;-65
2022/10/28 06:51:08;;;;;;;6.97;5.40;;;;;;;9.43;100.00;97264.84;5070622;27;103684;-65
2022/10/28 06:53:35;;;;;;;7.50;6.70;;;;;;;9.45;100.00;97265.47;5059843;27;106084;-65
2022/10/28 06:56:14;;;;;;;9.10;6.40;;;;;;;9.60;100.00;97268.53;5052751;27;101816;-64
2022/10/28 06:58:41;;;;;;;8.43;6.43;;;;;;;9.66;100.00;97272.94;5062671;27;105160;-65
2022/10/28 07:01:19;;;;;;;9.80;6.70;;;;;;;9.88;100.00;97278.63;5072709;27;101945;-66
2022/10/28 07:03:46;;;;;;;9.03;6.47;;;;;;;9.99;100.00;97276.03;5072669;27;105256;-66
2022/10/28 07:06:16;;;;;;;7.77;6.93;;;;;;;10.14;100.00;97280.97;5071834;27;104311;-66
2022/10/28 07:08:43;;;;;;;7.00;6.30;;;;;;;10.33;100.00;97279.84;5072542;27;102896;-66
2022/10/28 07:11:18;;;;;;;8.67;6.50;;;;;;;10.47;100.00;97281.28;5072291;27;105016;-66
2022/10/28 07:13:45;;;;;;;11.47;6.60;;;;;;;10.60;100.00;97286.41;5054388;27;105156;-66
2022/10/28 07:16:12;;;;;;;11.17;6.47;;;;;;;10.81;100.00;97288.53;5071499;27;101914;-66
2022/10/28 07:18:40;;;;;;;12.00;7.10;;;;;;;11.02;100.00;97287.97;5071631;27;103674;-66
2022/10/28 07:21:37;;;;;;;10.87;6.80;;;;;;;11.20;100.00;97286.00;5072438;27;102200;-66
2022/10/28 07:24:11;;;;;;;12.03;6.67;;;;;;;11.24;100.00;97291.66;5070747;27;106290;-66
2022/10/28 07:26:38;;;;;;;8.57;6.83;;;;;;;11.30;100.00;97290.72;5069607;27;103824;-65
2022/10/28 07:29:05;;;;;;;10.77;6.37;;;;;;;11.45;100.00;97305.19;5071260;27;102432;-63
2022/10/28 07:31:32;;;;;;;9.50;6.83;;;;;;;11.64;100.00;97309.38;5073426;27;102526;-66
2022/10/28 07:33:59;;;;;;;11.37;6.87;;;;;;;11.78;100.00;97299.25;5071370;27;105464;-64
2022/10/28 07:36:26;;;;;;;9.60;6.57;;;;;;;11.96;100.00;97299.09;5071285;27;102242;-64
2022/10/28 07:38:56;;;;;;;8.83;6.70;;;;;;;12.04;100.00;97301.41;5070802;27;105025;-64
2022/10/28 07:41:29;;;;;;;7.93;6.13;;;;;;;12.15;100.00;97304.00;5071509;27;105416;-65
2022/10/28 07:43:57;;;;;;;10.90;5.60;;;;;;;12.32;100.00;97299.53;5069139;27;104158;-65
2022/10/28 07:46:24;;;;;;;8.87;5.80;;;;;;;12.59;100.00;97297.09;5068760;27;102660;-65
2022/10/28 07:48:51;;;;;;;9.43;5.90;;;;;;;12.69;100.00;97295.38;5069444;27;103498;-65
2022/10/28 07:51:36;;;;;;;6.40;5.67;;;;;;;12.90;100.00;97288.50;5069539;27;104630;-69
2022/10/28 07:54:50;;;;;;;8.50;5.30;;;;;;;13.15;100.00;97281.75;5066566;27;105914;-64
2022/10/28 07:57:19;;;;;;;8.43;5.03;;;;;;;13.32;100.00;97285.22;5051054;27;101895;-64
2022/10/28 07:59:46;;;;;;;5.33;4.40;;;;;;;13.45;100.00;97294.72;5066606;27;103678;-64
2022/10/28 08:03:08;;;;;;;6.90;4.70;;;;;;;13.62;100.00;97284.81;5069490;27;104373;-65
2022/10/28 08:05:50;;;;;;;4.60;3.83;;;;;;;13.81;100.00;97280.78;5071938;27;103321;-64
2022/10/28 08:08:17;;;;;;;5.73;3.90;;;;;;;13.92;100.00;97287.88;5005051;28;103140;-64
2022/10/28 08:10:44;;;;;;;5.73;3.30;;;;;;;13.96;100.00;97281.75;4991814;28;102184;-64
2022/10/28 08:13:12;;;;;;;4.37;3.17;;;;;;;13.99;100.00;97277.78;4990828;28;105661;-63
2022/10/28 08:15:40;;;;;;;4.00;2.60;;;;;;;14.04;100.00;97276.00;4989202;28;105296;-64
2022/10/28 08:18:07;;;;;;;3.73;2.40;;;;;;;14.04;100.00;97267.97;4992925;28;102233;-64
2022/10/28 08:20:34;;;;;;;4.47;2.67;;;;;;;14.17;100.00;97272.91;4992047;28;105439;-64
2022/10/28 08:23:04;;;;;;;5.87;2.70;;;;;;;14.34;100.00;97275.53;4991851;28;105175;-64
2022/10/28 08:25:48;;;;;;;3.97;2.33;;;;;;;14.32;100.00;97273.09;5009607;28;102343;-64
2022/10/28 08:28:18;;;;;;;4.97;2.20;;;;;;;14.48;100.00;97263.34;4995415;28;103846;-64
2022/10/28 08:30:46;;;;;;;3.47;1.97;;;;;;;14.53;100.00;97271.44;4992728;28;102105;-64
2022/10/28 08:33:13;;;;;;;3.23;2.40;;;;;;;14.72;100.00;97264.66;4992410;28;105036;-64
2022/10/28 08:35:41;;;;;;;4.30;3.17;;;;;;;15.07;100.00;97264.94;4992053;28;105246;-64
2022/10/28 08:38:08;;;;;;;7.27;2.60;;;;;;;15.36;100.00;97276.97;4992381;28;102311;-64
2022/10/28 08:40:43;;;;;;;5.77;2.60;;;;;;;15.22;100.00;97270.41;4992680;28;105294;-64
2022/10/28 08:43:23;;;;;;;3.73;2.23;;;;;;;15.23;100.00;97269.31;4971929;28;105464;-62
2022/10/28 08:45:57;;;;;;;3.23;2.57;;;;;;;15.34;100.00;97276.41;5037137;27;102097;-62
2022/10/28 08:48:31;;;;;;;3.77;2.47;;;;;;;15.66;100.00;97267.22;5049892;27;103675;-62
2022/10/28 08:51:12;;;;;;;3.67;2.23;;;;;;;15.89;100.00;97257.91;5052932;27;105410;-64
2022/10/28 08:53:45;;;;;;;4.27;2.30;;;;;;;16.24;100.00;97274.16;5050550;27;105522;-63
2022/10/28 08:56:28;;;;;;;3.97;2.20;;;;;;;16.45;100.00;97267.78;5051279;27;105587;-62
2022/10/28 08:59:01;;;;;;;5.70;2.20;;;;;;;16.28;100.00;97264.47;5071013;27;101990;-62
2022/10/28 09:02:22;;;;;;;3.83;2.10;;;;;;;16.68;100.00;97269.97;5070469;27;105353;-62
2022/10/28 09:04:54;;;;;;;4.07;2.10;;;;;;;16.98;100.00;97280.72;5069800;27;105796;-62
2022/10/28 09:07:24;;;;;;;2.80;2.13;;;;;;;17.10;100.00;97273.19;5070904;27;102394;-63
2022/10/28 09:09:52;;;;;;;3.17;2.00;;;;;;;17.17;100.00;97279.91;5070671;27;103703;-63
2022/10/28 09:12:38;;;;;;;4.60;2.17;;;;;;;17.18;100.00;97272.66;5051868;27;105477;-63
2022/10/28 09:15:35;;;;;;;3.03;1.90;;;;;;;17.25;100.00;97273.16;5054012;27;101923;-62
2022/10/28 09:18:14;;;;;;;2.83;1.80;;;;;;;17.37;100.00;97279.06;5059127;27;105632;-62
2022/10/28 09:20:50;;;;;;;3.20;2.20;;;;;;;17.28;100.00;97276.13;5070347;27;101875;-62
2022/10/28 09:23:22;;;;;;;2.80;1.80;;;;;;;17.38;100.00;97278.00;5070661;27;105683;-63
2022/10/28 09:26:41;;;;;;;4.37;2.07;;;;;;;17.58;100.00;97277.97;5069303;27;103160;-63
2022/10/28 09:29:31;;;;;;;3.47;1.73;;;;;;;17.98;100.00;97281.34;5069834;27;101913;-64
2022/10/28 09:32:24;;;;;;;7.37;1.97;;;;;;;18.24;100.00;97280.16;5070614;27;104847;-63
2022/10/28 09:34:58;;;;;;;3.57;1.80;;;;;;;18.20;100.00;97272.94;5069388;27;105636;-63
2022/10/28 09:37:30;;;;;;;4.17;1.70;;;;;;;18.39;100.00;97276.63;5073905;27;102174;-63
2022/10/28 09:40:03;;;;;;;2.83;1.80;;;;;;;18.82;100.00;97267.72;5069205;27;105723;-64
2022/10/28 09:43:00;;;;;;;2.23;1.70;;;;;;;18.85;100.00;97275.25;5069655;27;101875;-64
2022/10/28 09:45:31;;;;;;;4.43;2.07;;;;;;;18.83;100.00;97266.63;5069912;27;105377;-63
2022/10/28 09:48:06;;;;;;;2.20;1.60;;;;;;;19.08;100.00;97272.63;5067960;27;105632;-63
2022/10/28 09:50:33;;;;;;;2.67;1.97;;;;;;;19.07;100.00;97268.31;5071300;27;102007;-63
2022/10/28 09:53:18;;;;;;;5.43;1.70;;;;;;;19.04;100.00;97270.78;5070323;27;104211;-63
2022/10/28 09:56:02;;;;;;;3.67;1.50;;;;;;;19.23;100.00;97269.03;5069585;27;105702;-63
2022/10/28 09:58:29;;;;;;;4.17;1.53;;;;;;;19.27;100.00;97270.88;5069912;27;101795;-63
2022/10/28 10:00:57;;;;;;;3.47;1.80;;;;;;;19.41;100.00;97271.81;5072731;27;103738;-62
2022/10/28 10:03:26;;;;;;;2.30;1.87;;;;;;;19.50;100.00;97269.31;5069119;27;101936;-63
2022/10/28 10:05:57;;;;;;;2.57;1.57;;;;;;;19.62;100.00;97269.72;5069991;27;103690;-62
2022/10/28 10:08:24;;;;;;;2.23;1.53;;;;;;;19.56;100.00;97276.28;5068694;27;103789;-62
2022/10/28 10:10:56;;;;;;;2.53;1.80;;;;;;;19.34;100.00;97265.94;5069764;27;101910;-62
2022/10/28 10:13:29;;;;;;;3.03;1.57;;;;;;;19.59;100.00;97267.59;5066863;27;105314;-63
2022/10/28 10:16:00;;;;;;;5.13;1.60;;;;;;;19.86;100.00;97265.13;5068066;27;105700;-62
2022/10/28 10:18:32;;;;;;;3.27;1.53;;;;;;;20.02;100.00;97261.97;5069910;27;101753;-62
2022/10/28 10:21:07;;;;;;;2.63;1.83;;;;;;;20.14;100.00;97272.38;5069768;27;103641;-62
2022/10/28 10:23:36;;;;;;;3.27;1.50;;;;;;;20.53;100.00;97270.22;5072561;27;103711;-62
2022/10/28 10:26:52;;;;;;;2.80;1.60;;;;;;;20.86;100.00;97263.78;5071087;27;102259;-62
2022/10/28 10:29:19;;;;;;;3.17;1.80;;;;;;;20.72;100.00;97265.63;5069079;27;103848;-62
2022/10/28 10:31:47;;;;;;;2.80;1.37;;;;;;;20.89;100.00;97257.81;5069652;27;102000;-63
2022/10/28 10:34:23;;;;;;;2.63;1.53;;;;;;;20.84;100.00;97260.56;5069769;27;105646;-62
2022/10/28 10:36:51;;;;;;;3.23;1.80;;;;;;;20.39;100.00;97269.34;5070424;27;102822;-62
2022/10/28 10:39:25;;;;;;;8.67;1.77;;;;;;;20.28;100.00;97268.66;5070365;27;101897;-63
2022/10/28 10:41:54;;;;;;;5.10;1.60;;;;;;;20.76;100.00;97256.63;5070834;27;102347;-62
2022/10/28 10:44:31;;;;;;;5.70;1.70;;;;;;;20.83;100.00;97248.16;5069057;27;104129;-62
2022/10/28 10:47:22;;;;;;;2.53;1.80;;;;;;;21.02;100.00;97241.66;5074372;27;101794;-62
2022/10/28 10:49:50;;;;;;;3.73;1.60;;;;;;;21.10;100.00;97240.97;5069878;27;102699;-62
2022/10/28 10:52:58;;;;;;;5.10;1.80;;;;;;;20.53;100.00;97248.59;5070669;27;101870;-62
2022/10/28 10:56:09;;;;;;;4.43;1.60;;;;;;;21.05;100.00;97251.06;5070822;27;102418;-62
2022/10/28 10:58:39;;;;;;;3.70;1.60;;;;;;;21.24;100.00;97249.94;5068343;27;105440;-62
2022/10/28 11:01:08;;;;;;;3.77;1.70;;;;;;;21.52;100.00;97250.78;5070458;27;101777;-62
2022/10/28 11:03:38;;;;;;;6.53;1.43;;;;;;;21.51;100.00;97252.69;5069012;27;105567;-62
2022/10/28 11:06:09;;;;;;;4.03;1.40;;;;;;;21.84;100.00;97237.19;5069715;27;105697;-62
2022/10/28 11:08:39;;;;;;;3.03;1.40;;;;;;;22.00;100.00;97233.06;5069309;27;101922;-62
2022/10/28 11:11:20;;;;;;;5.13;1.13;;;;;;;22.04;93.71;97232.19;5072060;27;103876;-62
2022/10/28 11:13:49;;;;;;;3.60;1.40;;;;;;;22.33;97.63;97235.34;5069143;27;102014;-62
2022/10/28 11:16:21;;;;;;;3.43;1.53;;;;;;;22.22;92.97;97225.00;5068711;27;103796;-62
2022/10/28 11:18:50;;;;;;;5.70;1.83;;;;;;;22.61;96.74;97228.75;5069468;27;102815;-62
2022/10/28 11:21:43;;;;;;;5.87;1.40;;;;;;;22.48;82.24;97228.81;5069044;27;101935;-62
2022/10/28 11:24:50;;;;;;;2.60;1.20;;;;;;;23.03;90.43;97222.06;5068748;27;104313;-62
2022/10/28 11:27:28;;;;;;;1.20;1.00;;;;;;;23.25;91.70;97217.47;5028865;27;105237;-62
2022/10/28 11:29:59;;;;;;;3.30;1.30;;;;;;;22.97;74.84;97217.88;5071651;27;102177;-62
2022/10/28 11:32:59;;;;;;;1.70;1.23;;;;;;;23.40;88.23;97217.06;5074065;27;102396;-62
2022/10/28 11:35:43;;;;;;;2.90;1.17;;;;;;;23.66;93.88;97214.47;5075381;27;103660;-62
2022/10/28 11:38:31;;;;;;;2.90;1.10;;;;;;;23.83;86.16;97212.63;5072263;27;105018;-62
2022/10/28 11:41:18;;;;;;;1.80;1.33;;;;;;;23.47;76.34;97206.56;5071512;27;106348;-62
2022/10/28 11:43:51;;;;;;;3.93;1.60;;;;;;;23.20;82.89;97205.91;5071553;27;102000;-62
2022/10/28 11:46:30;;;;;;;4.53;1.63;;;;;;;23.31;86.40;97201.81;5051911;27;105653;-62
2022/10/28 11:49:31;;;;;;;1.70;1.03;;;;;;;23.27;89.03;97200.88;5067787;27;105140;-62
2022/10/28 11:55:35;;;;;;;2.73;1.17;;;;;;;23.98;72.40;97195.13;5066395;27;102835;-62
2022/10/28 11:58:15;;;;;;;2.50;1.00;;;;;;;24.00;69.80;97182.81;5074603;27;106038;-62
2022/10/28 12:01:05;;;;;;;3.20;1.20;;;;;;;24.32;79.47;97179.66;5071968;27;106196;-62
2022/10/28 12:03:52;;;;;;;1.77;1.10;;;;;;;24.83;78.69;97184.31;5071219;27;105097;-62
2022/10/28 12:06:27;;;;;;;1.67;1.17;;;;;;;25.03;74.46;97180.94;5051712;27;101893;-62
2022/10/28 12:09:14;;;;;;;3.40;1.10;;;;;;;25.18;68.82;97178.50;5070003;27;102734;-62
2022/10/28 12:11:57;;;;;;;3.10;1.13;;;;;;;25.59;72.64;97175.19;5052089;27;102635;-62